sensor_id;sensor_type;location;lat;lon;timestamp;pressure;altitude;pressure_sealevel;temperature;humidity
27712;BME280;2377;51.734;8.950;2022-07-29T00:00:51;98054.56;;;20.23;45.09
27712;BME280;2377;51.734;8.950;2022-07-29T00:03:18;98046.75;;;20.23;45.01
27712;BME280;2377;51.734;8.950;2022-07-29T00:05:45;98047.78;;;20.22;44.96
27712;BME280;2377;51.734;8.950;2022-07-29T00:08:12;98042.09;;;20.20;44.93
27712;BME280;2377;51.734;8.950;2022-07-29T00:10:41;98039.00;;;20.18;44.79
27712;BME280;2377;51.734;8.950;2022-07-29T00:13:08;98035.91;;;20.16;44.94
27712;BME280;2377;51.734;8.950;2022-07-29T00:15:35;98031.75;;;20.15;45.21
27712;BME280;2377;51.734;8.950;2022-07-29T00:18:04;98034.34;;;20.15;45.10
27712;BME280;2377;51.734;8.950;2022-07-29T00:20:32;98032.81;;;20.14;44.99
27712;BME280;2377;51.734;8.950;2022-07-29T00:22:59;98030.72;;;20.16;45.01
27712;BME280;2377;51.734;8.950;2022-07-29T00:25:26;98026.56;;;20.15;44.98
27712;BME280;2377;51.734;8.950;2022-07-29T00:27:53;98021.38;;;20.15;45.00
27712;BME280;2377;51.734;8.950;2022-07-29T00:30:20;98020.34;;;20.16;45.39
27712;BME280;2377;51.734;8.950;2022-07-29T00:32:47;98025.53;;;20.16;44.98
27712;BME280;2377;51.734;8.950;2022-07-29T00:35:16;98015.41;;;20.14;44.58
27712;BME280;2377;51.734;8.950;2022-07-29T00:38:00;98027.63;;;20.14;44.52
27712;BME280;2377;51.734;8.950;2022-07-29T00:40:28;98025.53;;;20.16;44.50
27712;BME280;2377;51.734;8.950;2022-07-29T00:42:55;98025.53;;;20.16;44.54
27712;BME280;2377;51.734;8.950;2022-07-29T00:45:22;98021.88;;;20.17;44.80
27712;BME280;2377;51.734;8.950;2022-07-29T00:47:49;98017.44;;;20.17;44.67
27712;BME280;2377;51.734;8.950;2022-07-29T00:50:18;98021.88;;;20.17;44.68
27712;BME280;2377;51.734;8.950;2022-07-29T00:52:46;98008.38;;;20.15;44.75
27712;BME280;2377;51.734;8.950;2022-07-29T00:55:15;98014.63;;;20.14;44.50
27712;BME280;2377;51.734;8.950;2022-07-29T00:57:44;98005.78;;;20.15;44.60
27712;BME280;2377;51.734;8.950;2022-07-29T01:00:15;98004.25;;;20.14;44.58
27712;BME280;2377;51.734;8.950;2022-07-29T01:02:44;98001.66;;;20.14;44.46
27712;BME280;2377;51.734;8.950;2022-07-29T01:05:16;97990.75;;;20.12;44.53
27712;BME280;2377;51.734;8.950;2022-07-29T01:07:46;97993.34;;;20.12;44.66
27712;BME280;2377;51.734;8.950;2022-07-29T01:10:15;97988.72;;;20.09;44.54
27712;BME280;2377;51.734;8.950;2022-07-29T01:12:46;97990.81;;;20.06;44.67
27712;BME280;2377;51.734;8.950;2022-07-29T01:15:14;97981.44;;;20.05;44.56
27712;BME280;2377;51.734;8.950;2022-07-29T01:17:49;97979.91;;;20.04;44.88
27712;BME280;2377;51.734;8.950;2022-07-29T01:20:26;97974.97;;;20.03;44.26
27712;BME280;2377;51.734;8.950;2022-07-29T01:23:31;97967.22;;;19.98;44.49
27712;BME280;2377;51.734;8.950;2022-07-29T01:26:29;97964.91;;;19.96;44.74
27712;BME280;2377;51.734;8.950;2022-07-29T01:29:07;97963.88;;;19.97;44.74
27712;BME280;2377;51.734;8.950;2022-07-29T01:31:48;97959.69;;;19.96;44.64
27712;BME280;2377;51.734;8.950;2022-07-29T01:34:25;97958.16;;;19.95;45.02
27712;BME280;2377;51.734;8.950;2022-07-29T01:37:06;97955.56;;;19.95;44.80
27712;BME280;2377;51.734;8.950;2022-07-29T01:39:37;97958.16;;;19.95;44.63
27712;BME280;2377;51.734;8.950;2022-07-29T01:42:13;97955.06;;;19.93;44.95
27712;BME280;2377;51.734;8.950;2022-07-29T01:44:53;97953.53;;;19.92;44.68
27712;BME280;2377;51.734;8.950;2022-07-29T01:47:28;97950.41;;;19.90;44.81
27712;BME280;2377;51.734;8.950;2022-07-29T01:50:01;97953.00;;;19.90;45.21
27712;BME280;2377;51.734;8.950;2022-07-29T01:52:37;97962.88;;;19.88;45.01
27712;BME280;2377;51.734;8.950;2022-07-29T01:55:13;97961.31;;;19.87;44.92
27712;BME280;2377;51.734;8.950;2022-07-29T01:57:45;97957.44;;;19.84;45.06
27712;BME280;2377;51.734;8.950;2022-07-29T02:00:16;97955.13;;;19.83;44.98
27712;BME280;2377;51.734;8.950;2022-07-29T02:02:45;97953.84;;;19.80;45.18
27712;BME280;2377;51.734;8.950;2022-07-29T02:05:17;97941.69;;;19.76;45.10
27712;BME280;2377;51.734;8.950;2022-07-29T02:07:47;97936.50;;;19.76;45.35
27712;BME280;2377;51.734;8.950;2022-07-29T02:10:21;97942.19;;;19.73;45.54
27712;BME280;2377;51.734;8.950;2022-07-29T02:12:50;97940.66;;;19.67;45.50
27712;BME280;2377;51.734;8.950;2022-07-29T02:15:19;97938.34;;;19.65;45.61
27712;BME280;2377;51.734;8.950;2022-07-29T02:17:53;97934.47;;;19.62;45.84
27712;BME280;2377;51.734;8.950;2022-07-29T02:20:23;97943.03;;;19.58;45.89
27712;BME280;2377;51.734;8.950;2022-07-29T02:22:53;97936.56;;;19.55;45.81
27712;BME280;2377;51.734;8.950;2022-07-29T02:25:23;97939.69;;;19.57;45.80
27712;BME280;2377;51.734;8.950;2022-07-29T02:27:52;97936.06;;;19.53;45.97
27712;BME280;2377;51.734;8.950;2022-07-29T02:30:26;97928.53;;;19.52;45.96
27712;BME280;2377;51.734;8.950;2022-07-29T02:32:55;97935.28;;;19.53;46.07
27712;BME280;2377;51.734;8.950;2022-07-29T02:35:24;97935.53;;;19.51;46.33
27712;BME280;2377;51.734;8.950;2022-07-29T02:37:53;97928.06;;;19.50;45.93
27712;BME280;2377;51.734;8.950;2022-07-29T02:40:37;97923.63;;;19.50;46.36
27712;BME280;2377;51.734;8.950;2022-07-29T02:43:08;97920.03;;;19.46;46.23
27712;BME280;2377;51.734;8.950;2022-07-29T02:45:38;97921.34;;;19.43;46.40
27712;BME280;2377;51.734;8.950;2022-07-29T02:48:13;97930.94;;;19.43;46.06
27712;BME280;2377;51.734;8.950;2022-07-29T02:50:49;97929.38;;;19.42;46.36
27712;BME280;2377;51.734;8.950;2022-07-29T02:53:23;97933.53;;;19.43;46.20
27712;BME280;2377;51.734;8.950;2022-07-29T02:55:56;97919.00;;;19.42;46.47
27712;BME280;2377;51.734;8.950;2022-07-29T02:58:27;97928.84;;;19.40;46.20
27712;BME280;2377;51.734;8.950;2022-07-29T03:01:01;97927.06;;;19.35;46.48
27712;BME280;2377;51.734;8.950;2022-07-29T03:03:33;97927.34;;;19.34;46.31
27712;BME280;2377;51.734;8.950;2022-07-29T03:06:04;97917.50;;;19.31;46.77
27712;BME280;2377;51.734;8.950;2022-07-29T03:08:32;97918.03;;;19.28;46.44
27712;BME280;2377;51.734;8.950;2022-07-29T03:11:02;97926.84;;;19.27;46.66
27712;BME280;2377;51.734;8.950;2022-07-29T03:13:30;97920.91;;;19.26;46.63
27712;BME280;2377;51.734;8.950;2022-07-29T03:15:59;97926.84;;;19.27;46.77
27712;BME280;2377;51.734;8.950;2022-07-29T03:18:27;97914.91;;;19.26;46.77
27712;BME280;2377;51.734;8.950;2022-07-29T03:20:55;97918.56;;;19.25;46.65
27712;BME280;2377;51.734;8.950;2022-07-29T03:23:23;97916.22;;;19.23;47.00
27712;BME280;2377;51.734;8.950;2022-07-29T03:25:54;97917.00;;;19.23;46.87
27712;BME280;2377;51.734;8.950;2022-07-29T03:28:22;97923.75;;;19.25;46.72
27712;BME280;2377;51.734;8.950;2022-07-29T03:30:50;97916.75;;;19.25;46.88
27712;BME280;2377;51.734;8.950;2022-07-29T03:33:21;97917.25;;;19.27;46.65
27712;BME280;2377;51.734;8.950;2022-07-29T03:35:49;97923.72;;;19.30;46.57
27712;BME280;2377;51.734;8.950;2022-07-29T03:38:16;97919.06;;;19.32;46.89
27712;BME280;2377;51.734;8.950;2022-07-29T03:40:49;97913.88;;;19.32;46.81
27712;BME280;2377;51.734;8.950;2022-07-29T03:43:19;97910.22;;;19.33;46.95
27712;BME280;2377;51.734;8.950;2022-07-29T03:45:51;97908.44;;;19.33;46.63
27712;BME280;2377;51.734;8.950;2022-07-29T03:48:24;97905.56;;;19.35;46.53
27712;BME280;2377;51.734;8.950;2022-07-29T03:50:52;97897.78;;;19.35;46.85
27712;BME280;2377;51.734;8.950;2022-07-29T03:53:20;97898.28;;;19.37;46.66
27712;BME280;2377;51.734;8.950;2022-07-29T03:55:53;97898.03;;;19.38;47.12
27712;BME280;2377;51.734;8.950;2022-07-29T03:58:23;97890.25;;;19.38;46.81
27712;BME280;2377;51.734;8.950;2022-07-29T04:00:54;97893.09;;;19.37;46.74
27712;BME280;2377;51.734;8.950;2022-07-29T04:03:23;97893.09;;;19.37;46.81
27712;BME280;2377;51.734;8.950;2022-07-29T04:06:01;97895.94;;;19.35;46.92
27712;BME280;2377;51.734;8.950;2022-07-29T04:08:29;97908.91;;;19.35;46.75
27712;BME280;2377;51.734;8.950;2022-07-29T04:10:56;97910.47;;;19.36;46.51
27712;BME280;2377;51.734;8.950;2022-07-29T04:13:23;97914.34;;;19.39;46.63
27712;BME280;2377;51.734;8.950;2022-07-29T04:15:50;97918.47;;;19.40;46.96
27712;BME280;2377;51.734;8.950;2022-07-29T04:18:17;97914.34;;;19.39;46.68
27712;BME280;2377;51.734;8.950;2022-07-29T04:20:46;97911.00;;;19.38;46.83
27712;BME280;2377;51.734;8.950;2022-07-29T04:23:13;97914.91;;;19.36;47.14
27712;BME280;2377;51.734;8.950;2022-07-29T04:25:42;97924.75;;;19.34;47.23
27712;BME280;2377;51.734;8.950;2022-07-29T04:28:10;97915.41;;;19.33;46.98
27712;BME280;2377;51.734;8.950;2022-07-29T04:30:38;97911.78;;;19.34;47.18
27712;BME280;2377;51.734;8.950;2022-07-29T04:33:06;97921.63;;;19.37;47.37
27712;BME280;2377;51.734;8.950;2022-07-29T04:35:36;97928.38;;;19.38;46.88
27712;BME280;2377;51.734;8.950;2022-07-29T04:38:05;97922.13;;;19.39;47.03
27712;BME280;2377;51.734;8.950;2022-07-29T04:40:33;97909.69;;;19.41;47.13
27712;BME280;2377;51.734;8.950;2022-07-29T04:43:01;97915.88;;;19.40;46.73
27712;BME280;2377;51.734;8.950;2022-07-29T04:45:28;97914.88;;;19.41;46.97
27712;BME280;2377;51.734;8.950;2022-07-29T04:47:56;97929.13;;;19.38;47.11
27712;BME280;2377;51.734;8.950;2022-07-29T04:50:23;97928.38;;;19.38;47.10
27712;BME280;2377;51.734;8.950;2022-07-29T04:52:50;97920.59;;;19.38;46.81
27712;BME280;2377;51.734;8.950;2022-07-29T04:55:18;97935.34;;;19.37;47.08
27712;BME280;2377;51.734;8.950;2022-07-29T04:57:46;97927.56;;;19.37;47.12
27712;BME280;2377;51.734;8.950;2022-07-29T05:00:13;97927.56;;;19.37;47.76
27712;BME280;2377;51.734;8.950;2022-07-29T05:02:40;97915.41;;;19.33;48.21
27712;BME280;2377;51.734;8.950;2022-07-29T05:05:08;97905.56;;;19.30;48.26
27712;BME280;2377;51.734;8.950;2022-07-29T05:07:35;97893.94;;;19.27;47.77
27712;BME280;2377;51.734;8.950;2022-07-29T05:10:03;97885.63;;;19.25;47.99
27712;BME280;2377;51.734;8.950;2022-07-29T05:12:32;97870.34;;;19.29;47.98
27712;BME280;2377;51.734;8.950;2022-07-29T05:14:59;97877.06;;;19.30;47.87
27712;BME280;2377;51.734;8.950;2022-07-29T05:17:26;97872.16;;;19.23;47.81
27712;BME280;2377;51.734;8.950;2022-07-29T05:19:53;97864.16;;;19.19;47.48
27712;BME280;2377;51.734;8.950;2022-07-29T05:22:21;97858.97;;;19.19;48.18
27712;BME280;2377;51.734;8.950;2022-07-29T05:24:48;97852.22;;;19.18;48.27
27712;BME280;2377;51.734;8.950;2022-07-29T05:27:15;97858.97;;;19.19;48.53
27712;BME280;2377;51.734;8.950;2022-07-29T05:29:43;97861.06;;;19.17;48.89
27712;BME280;2377;51.734;8.950;2022-07-29T05:32:11;97870.38;;;19.18;48.58
27712;BME280;2377;51.734;8.950;2022-07-29T05:34:39;97881.25;;;19.20;49.17
27712;BME280;2377;51.734;8.950;2022-07-29T05:37:06;97885.91;;;19.18;49.24
27712;BME280;2377;51.734;8.950;2022-07-29T05:39:33;97896.03;;;19.20;49.40
27712;BME280;2377;51.734;8.950;2022-07-29T05:42:00;97904.56;;;19.20;49.73
27712;BME280;2377;51.734;8.950;2022-07-29T05:44:27;97912.34;;;19.20;49.96
27712;BME280;2377;51.734;8.950;2022-07-29T05:46:56;97907.44;;;19.24;49.97
27712;BME280;2377;51.734;8.950;2022-07-29T05:49:23;97914.91;;;19.26;50.83
27712;BME280;2377;51.734;8.950;2022-07-29T05:51:50;97917.25;;;19.27;51.33
27712;BME280;2377;51.734;8.950;2022-07-29T05:54:17;97905.63;;;19.19;51.72
27712;BME280;2377;51.734;8.950;2022-07-29T05:56:44;97905.63;;;19.19;51.21
27712;BME280;2377;51.734;8.950;2022-07-29T05:59:11;97900.44;;;19.19;51.37
27712;BME280;2377;51.734;8.950;2022-07-29T06:01:38;97897.06;;;19.19;51.42
27712;BME280;2377;51.734;8.950;2022-07-29T06:04:08;97897.34;;;19.17;52.66
27712;BME280;2377;51.734;8.950;2022-07-29T06:06:35;97898.41;;;19.11;52.95
27712;BME280;2377;51.734;8.950;2022-07-29T06:09:03;97898.16;;;19.08;52.87
27712;BME280;2377;51.734;8.950;2022-07-29T06:11:30;97893.50;;;19.05;52.46
27712;BME280;2377;51.734;8.950;2022-07-29T06:13:57;97891.19;;;19.03;52.37
27712;BME280;2377;51.734;8.950;2022-07-29T06:16:24;97890.16;;;18.99;52.80
27712;BME280;2377;51.734;8.950;2022-07-29T06:18:52;97884.97;;;18.99;52.80
27712;BME280;2377;51.734;8.950;2022-07-29T06:21:20;97888.09;;;18.96;52.72
27712;BME280;2377;51.734;8.950;2022-07-29T06:23:47;97878.50;;;18.96;52.57
27712;BME280;2377;51.734;8.950;2022-07-29T06:26:14;97877.22;;;18.94;52.77
27712;BME280;2377;51.734;8.950;2022-07-29T06:28:41;97880.84;;;18.93;52.89
27712;BME280;2377;51.734;8.950;2022-07-29T06:31:08;97885.50;;;18.96;52.79
27712;BME280;2377;51.734;8.950;2022-07-29T06:33:36;97886.28;;;18.96;52.89
27712;BME280;2377;51.734;8.950;2022-07-29T06:36:04;97890.66;;;19.01;53.26
27712;BME280;2377;51.734;8.950;2022-07-29T06:38:33;97900.47;;;19.09;53.41
27712;BME280;2377;51.734;8.950;2022-07-29T06:41:00;97890.63;;;19.11;52.44
27712;BME280;2377;51.734;8.950;2022-07-29T06:43:30;97900.47;;;19.09;52.61
27712;BME280;2377;51.734;8.950;2022-07-29T06:46:01;97902.06;;;19.05;53.24
27712;BME280;2377;51.734;8.950;2022-07-29T06:48:28;97894.28;;;19.05;53.50
27712;BME280;2377;51.734;8.950;2022-07-29T06:50:56;97895.81;;;19.06;52.87
27712;BME280;2377;51.734;8.950;2022-07-29T06:53:25;97898.19;;;19.03;53.07
27712;BME280;2377;51.734;8.950;2022-07-29T06:55:53;97889.91;;;19.00;53.05
27712;BME280;2377;51.734;8.950;2022-07-29T06:58:20;97901.56;;;18.98;53.10
27712;BME280;2377;51.734;8.950;2022-07-29T07:00:48;97902.59;;;18.97;53.52
27712;BME280;2377;51.734;8.950;2022-07-29T07:03:16;97904.66;;;18.95;53.17
27712;BME280;2377;51.734;8.950;2022-07-29T07:05:44;97900.03;;;18.92;53.55
27712;BME280;2377;51.734;8.950;2022-07-29T07:08:12;97900.56;;;18.89;54.33
27712;BME280;2377;51.734;8.950;2022-07-29T07:10:40;97910.38;;;18.92;54.70
27712;BME280;2377;51.734;8.950;2022-07-29T07:13:08;97908.53;;;18.97;54.43
27712;BME280;2377;51.734;8.950;2022-07-29T07:15:36;97913.22;;;19.00;53.61
27712;BME280;2377;51.734;8.950;2022-07-29T07:18:04;97909.59;;;18.96;53.66
27712;BME280;2377;51.734;8.950;2022-07-29T07:20:31;97911.41;;;19.01;54.88
27712;BME280;2377;51.734;8.950;2022-07-29T07:22:58;97917.31;;;19.12;54.53
27712;BME280;2377;51.734;8.950;2022-07-29T07:25:29;97928.44;;;19.17;54.40
27712;BME280;2377;51.734;8.950;2022-07-29T07:27:57;97938.78;;;19.22;55.02
27712;BME280;2377;51.734;8.950;2022-07-29T07:30:26;97943.72;;;19.24;54.44
27712;BME280;2377;51.734;8.950;2022-07-29T07:32:53;97952.50;;;19.28;54.08
27712;BME280;2377;51.734;8.950;2022-07-29T07:35:21;97950.13;;;19.37;54.25
27712;BME280;2377;51.734;8.950;2022-07-29T07:37:48;97942.31;;;19.42;53.56
27712;BME280;2377;51.734;8.950;2022-07-29T07:40:15;97946.97;;;19.50;54.25
27712;BME280;2377;51.734;8.950;2022-07-29T07:42:42;97948.47;;;19.61;54.14
27712;BME280;2377;51.734;8.950;2022-07-29T07:45:10;97955.72;;;19.64;53.63
27712;BME280;2377;51.734;8.950;2022-07-29T07:47:39;97954.41;;;19.72;53.49
27712;BME280;2377;51.734;8.950;2022-07-29T07:50:09;97949.47;;;19.76;53.24
27712;BME280;2377;51.734;8.950;2022-07-29T07:52:47;97951.47;;;19.84;52.17
27712;BME280;2377;51.734;8.950;2022-07-29T07:55:14;97946.81;;;19.86;53.02
27712;BME280;2377;51.734;8.950;2022-07-29T07:57:42;97952.25;;;19.90;53.76
27712;BME280;2377;51.734;8.950;2022-07-29T08:00:10;97947.06;;;19.90;53.30
27712;BME280;2377;51.734;8.950;2022-07-29T08:02:40;97946.84;;;19.81;53.76
27712;BME280;2377;51.734;8.950;2022-07-29T08:05:09;97943.97;;;19.82;53.47
27712;BME280;2377;51.734;8.950;2022-07-29T08:07:37;97944.75;;;19.83;53.21
27712;BME280;2377;51.734;8.950;2022-07-29T08:10:05;97943.69;;;19.84;53.42
27712;BME280;2377;51.734;8.950;2022-07-29T08:12:33;97942.91;;;19.89;53.62
27712;BME280;2377;51.734;8.950;2022-07-29T08:15:00;97951.44;;;19.94;54.07
27712;BME280;2377;51.734;8.950;2022-07-29T08:17:28;97950.88;;;19.97;54.03
27712;BME280;2377;51.734;8.950;2022-07-29T08:19:56;97948.25;;;20.02;53.96
27712;BME280;2377;51.734;8.950;2022-07-29T08:22:23;97942.00;;;20.03;52.68
27712;BME280;2377;51.734;8.950;2022-07-29T08:24:50;97939.41;;;20.09;52.82
27712;BME280;2377;51.734;8.950;2022-07-29T08:27:22;97938.81;;;20.17;52.83
27712;BME280;2377;51.734;8.950;2022-07-29T08:29:49;97937.50;;;20.19;52.95
27712;BME280;2377;51.734;8.950;2022-07-29T08:32:16;97944.47;;;20.24;53.58
27712;BME280;2377;51.734;8.950;2022-07-29T08:34:43;97952.97;;;20.35;53.46
27712;BME280;2377;51.734;8.950;2022-07-29T08:37:13;97950.06;;;20.36;53.50
27712;BME280;2377;51.734;8.950;2022-07-29T08:39:40;97949.25;;;20.46;53.95
27712;BME280;2377;51.734;8.950;2022-07-29T08:42:08;97952.53;;;20.57;52.76
27712;BME280;2377;51.734;8.950;2022-07-29T08:44:36;97952.28;;;20.58;53.68
27712;BME280;2377;51.734;8.950;2022-07-29T08:47:04;97956.84;;;20.66;53.06
27712;BME280;2377;51.734;8.950;2022-07-29T08:49:34;97957.50;;;20.82;53.26
27712;BME280;2377;51.734;8.950;2022-07-29T08:52:03;97954.25;;;20.96;52.24
27712;BME280;2377;51.734;8.950;2022-07-29T08:54:32;97963.44;;;21.12;51.02
27712;BME280;2377;51.734;8.950;2022-07-29T08:57:00;97968.31;;;21.43;50.44
27712;BME280;2377;51.734;8.950;2022-07-29T08:59:32;97959.88;;;21.70;48.45
27712;BME280;2377;51.734;8.950;2022-07-29T09:02:02;97962.50;;;21.70;48.86
27712;BME280;2377;51.734;8.950;2022-07-29T09:04:33;97964.06;;;21.71;49.76
27712;BME280;2377;51.734;8.950;2022-07-29T09:07:05;97961.22;;;21.67;49.24
27712;BME280;2377;51.734;8.950;2022-07-29T09:09:35;97961.72;;;21.69;49.67
27712;BME280;2377;51.734;8.950;2022-07-29T09:12:04;97952.31;;;21.73;49.51
27712;BME280;2377;51.734;8.950;2022-07-29T09:14:33;97955.09;;;21.96;49.30
27712;BME280;2377;51.734;8.950;2022-07-29T09:17:00;97949.25;;;22.23;48.70
27712;BME280;2377;51.734;8.950;2022-07-29T09:19:30;97943.91;;;22.47;48.04
27712;BME280;2377;51.734;8.950;2022-07-29T09:22:00;97948.00;;;22.53;46.98
27712;BME280;2377;51.734;8.950;2022-07-29T09:24:40;97942.38;;;22.46;47.36
27712;BME280;2377;51.734;8.950;2022-07-29T09:27:23;97943.72;;;22.44;48.64
27712;BME280;2377;51.734;8.950;2022-07-29T09:30:03;97939.47;;;22.48;47.30
27712;BME280;2377;51.734;8.950;2022-07-29T09:32:32;97941.13;;;22.57;46.64
27712;BME280;2377;51.734;8.950;2022-07-29T09:35:17;97938.72;;;22.61;46.46
27712;BME280;2377;51.734;8.950;2022-07-29T09:37:45;97938.44;;;22.63;47.65
27712;BME280;2377;51.734;8.950;2022-07-29T09:40:16;97945.59;;;22.71;47.80
27712;BME280;2377;51.734;8.950;2022-07-29T09:42:45;97950.22;;;22.74;46.69
27712;BME280;2377;51.734;8.950;2022-07-29T09:45:25;97958.63;;;22.71;46.67
27712;BME280;2377;51.734;8.950;2022-07-29T09:47:52;97956.53;;;22.87;48.10
27712;BME280;2377;51.734;8.950;2022-07-29T09:50:21;97957.03;;;23.16;48.26
27712;BME280;2377;51.734;8.950;2022-07-29T09:52:52;97957.31;;;23.29;46.86
27712;BME280;2377;51.734;8.950;2022-07-29T09:55:21;97948.81;;;23.37;48.39
27712;BME280;2377;51.734;8.950;2022-07-29T09:57:48;97945.91;;;23.38;47.54
27712;BME280;2377;51.734;8.950;2022-07-29T10:00:18;97951.50;;;23.46;48.06
27712;BME280;2377;51.734;8.950;2022-07-29T10:02:47;97950.50;;;23.55;47.04
27712;BME280;2377;51.734;8.950;2022-07-29T10:05:20;97941.81;;;23.60;46.14
27712;BME280;2377;51.734;8.950;2022-07-29T10:07:51;97935.81;;;23.59;47.51
27712;BME280;2377;51.734;8.950;2022-07-29T10:10:25;97941.97;;;23.77;48.16
27712;BME280;2377;51.734;8.950;2022-07-29T10:12:55;97942.06;;;24.09;48.00
27712;BME280;2377;51.734;8.950;2022-07-29T10:15:25;97939.00;;;24.38;45.02
27712;BME280;2377;51.734;8.950;2022-07-29T10:17:55;97947.06;;;24.50;45.55
27712;BME280;2377;51.734;8.950;2022-07-29T10:20:25;97945.00;;;24.61;45.00
27712;BME280;2377;51.734;8.950;2022-07-29T10:22:53;97946.75;;;24.74;44.23
27712;BME280;2377;51.734;8.950;2022-07-29T10:25:23;97951.84;;;24.79;45.52
27712;BME280;2377;51.734;8.950;2022-07-29T10:27:51;97945.72;;;24.84;44.21
27712;BME280;2377;51.734;8.950;2022-07-29T10:30:21;97945.38;;;24.77;44.07
27712;BME280;2377;51.734;8.950;2022-07-29T10:33:21;97944.16;;;24.83;43.30
27712;BME280;2377;51.734;8.950;2022-07-29T10:36:07;97946.03;;;24.91;44.29
27712;BME280;2377;51.734;8.950;2022-07-29T10:38:55;97943.31;;;25.14;45.41
27712;BME280;2377;51.734;8.950;2022-07-29T10:41:54;97945.25;;;25.30;43.10
27712;BME280;2377;51.734;8.950;2022-07-29T10:44:25;97951.09;;;25.36;43.29
27712;BME280;2377;51.734;8.950;2022-07-29T10:46:54;97951.56;;;25.38;43.26
27712;BME280;2377;51.734;8.950;2022-07-29T10:49:23;97953.25;;;25.34;41.57
27712;BME280;2377;51.734;8.950;2022-07-29T10:52:02;97950.94;;;25.33;42.36
27712;BME280;2377;51.734;8.950;2022-07-29T10:54:45;97943.41;;;25.31;41.11
27712;BME280;2377;51.734;8.950;2022-07-29T10:57:30;97946.47;;;25.33;41.84
27712;BME280;2377;51.734;8.950;2022-07-29T11:00:28;97944.31;;;25.35;41.14
27712;BME280;2377;51.734;8.950;2022-07-29T11:02:55;97942.94;;;25.29;41.38
27712;BME280;2377;51.734;8.950;2022-07-29T11:05:24;97950.00;;;25.28;42.17
27712;BME280;2377;51.734;8.950;2022-07-29T11:08:22;97957.84;;;25.20;40.89
27712;BME280;2377;51.734;8.950;2022-07-29T11:10:53;97951.63;;;25.16;42.22
27712;BME280;2377;51.734;8.950;2022-07-29T11:13:52;97962.63;;;25.35;41.77
27712;BME280;2377;51.734;8.950;2022-07-29T11:16:22;97964.34;;;25.48;41.12
27712;BME280;2377;51.734;8.950;2022-07-29T11:19:21;97961.44;;;25.59;40.31
27712;BME280;2377;51.734;8.950;2022-07-29T11:21:49;97955.28;;;25.72;40.56
27712;BME280;2377;51.734;8.950;2022-07-29T11:24:20;97951.13;;;25.80;40.88
27712;BME280;2377;51.734;8.950;2022-07-29T11:27:11;97962.22;;;25.85;40.64
27712;BME280;2377;51.734;8.950;2022-07-29T11:29:49;97956.41;;;25.88;40.68
27712;BME280;2377;51.734;8.950;2022-07-29T11:32:18;97958.25;;;25.88;40.94
27712;BME280;2377;51.734;8.950;2022-07-29T11:34:47;97952.03;;;25.75;40.01
27712;BME280;2377;51.734;8.950;2022-07-29T11:37:24;97954.34;;;25.68;41.51
27712;BME280;2377;51.734;8.950;2022-07-29T11:40:16;97947.44;;;25.72;41.85
27712;BME280;2377;51.734;8.950;2022-07-29T11:42:49;97946.50;;;25.85;42.32
27712;BME280;2377;51.734;8.950;2022-07-29T11:45:46;97954.84;;;25.96;41.79
27712;BME280;2377;51.734;8.950;2022-07-29T11:48:17;97944.34;;;26.05;40.83
27712;BME280;2377;51.734;8.950;2022-07-29T11:50:45;97939.75;;;26.02;40.75
27712;BME280;2377;51.734;8.950;2022-07-29T11:53:14;97945.44;;;26.04;40.92
27712;BME280;2377;51.734;8.950;2022-07-29T11:55:42;97937.59;;;26.04;41.99
27712;BME280;2377;51.734;8.950;2022-07-29T11:58:09;97936.78;;;26.21;39.49
27712;BME280;2377;51.734;8.950;2022-07-29T12:00:40;97937.22;;;26.31;39.56
27712;BME280;2377;51.734;8.950;2022-07-29T12:03:10;97940.28;;;26.42;40.74
27712;BME280;2377;51.734;8.950;2022-07-29T12:05:41;97937.63;;;26.60;40.21
27712;BME280;2377;51.734;8.950;2022-07-29T12:08:12;97939.94;;;26.61;40.57
27712;BME280;2377;51.734;8.950;2022-07-29T12:10:42;97936.56;;;26.61;40.27
27712;BME280;2377;51.734;8.950;2022-07-29T12:13:10;97931.88;;;26.66;39.78
27712;BME280;2377;51.734;8.950;2022-07-29T12:15:40;97927.06;;;26.77;40.23
27712;BME280;2377;51.734;8.950;2022-07-29T12:18:18;97934.53;;;26.96;40.69
27712;BME280;2377;51.734;8.950;2022-07-29T12:20:47;97923.94;;;27.13;40.02
27712;BME280;2377;51.734;8.950;2022-07-29T12:23:15;97915.88;;;27.18;39.22
27712;BME280;2377;51.734;8.950;2022-07-29T12:25:44;97922.22;;;27.26;39.65
27712;BME280;2377;51.734;8.950;2022-07-29T12:28:15;97918.88;;;27.38;39.17
27712;BME280;2377;51.734;8.950;2022-07-29T12:30:48;97922.38;;;27.42;39.86
27712;BME280;2377;51.734;8.950;2022-07-29T12:33:21;97929.63;;;27.45;39.45
27712;BME280;2377;51.734;8.950;2022-07-29T12:35:51;97930.53;;;27.49;39.12
27712;BME280;2377;51.734;8.950;2022-07-29T12:38:20;97921.50;;;27.38;37.72
27712;BME280;2377;51.734;8.950;2022-07-29T12:40:49;97917.84;;;27.30;38.25
27712;BME280;2377;51.734;8.950;2022-07-29T12:43:20;97920.28;;;27.35;38.99
27712;BME280;2377;51.734;8.950;2022-07-29T12:45:51;97915.16;;;27.39;39.15
27712;BME280;2377;51.734;8.950;2022-07-29T12:48:33;97916.38;;;27.41;38.47
27712;BME280;2377;51.734;8.950;2022-07-29T12:51:03;97911.81;;;27.51;39.63
27712;BME280;2377;51.734;8.950;2022-07-29T12:53:32;97916.94;;;27.68;39.39
27712;BME280;2377;51.734;8.950;2022-07-29T12:56:00;97910.09;;;27.76;38.47
27712;BME280;2377;51.734;8.950;2022-07-29T12:58:30;97897.84;;;27.80;38.55
27712;BME280;2377;51.734;8.950;2022-07-29T13:01:17;97900.66;;;27.75;37.73
27712;BME280;2377;51.734;8.950;2022-07-29T13:03:51;97900.59;;;27.83;38.35
27712;BME280;2377;51.734;8.950;2022-07-29T13:06:31;97902.19;;;27.97;37.94
27712;BME280;2377;51.734;8.950;2022-07-29T13:09:09;97901.66;;;28.03;37.12
27712;BME280;2377;51.734;8.950;2022-07-29T13:11:39;97907.69;;;28.04;39.58
27712;BME280;2377;51.734;8.950;2022-07-29T13:14:10;97908.47;;;28.17;38.43
27712;BME280;2377;51.734;8.950;2022-07-29T13:17:04;97903.22;;;28.29;38.67
27712;BME280;2377;51.734;8.950;2022-07-29T13:19:37;97903.59;;;28.40;37.30
27712;BME280;2377;51.734;8.950;2022-07-29T13:22:06;97903.13;;;28.38;36.14
27712;BME280;2377;51.734;8.950;2022-07-29T13:24:34;97903.91;;;28.38;36.81
27712;BME280;2377;51.734;8.950;2022-07-29T13:27:13;97904.78;;;28.30;35.51
27712;BME280;2377;51.734;8.950;2022-07-29T13:29:40;97892.91;;;28.24;36.33